sensor_id;sensor_type;location;lat;lon;timestamp;temperature;humidity
32215;DHT22;18708;53.124;23.190;2024-03-17T00:01:02;9.10;99.90
32215;DHT22;18708;53.124;23.190;2024-03-17T00:03:28;9.20;99.90
32215;DHT22;18708;53.124;23.190;2024-03-17T00:05:58;9.30;99.90
32215;DHT22;18708;53.124;23.190;2024-03-17T00:08:25;9.30;99.90
32215;DHT22;18708;53.124;23.190;2024-03-17T00:10:53;9.30;99.90
32215;DHT22;18708;53.124;23.190;2024-03-17T00:13:20;9.30;99.90
32215;DHT22;18708;53.124;23.190;2024-03-17T00:15:47;9.30;99.90
32215;DHT22;18708;53.124;23.190;2024-03-17T00:18:13;9.30;99.90
32215;DHT22;18708;53.124;23.190;2024-03-17T00:20:40;9.30;99.90
32215;DHT22;18708;53.124;23.190;2024-03-17T00:23:06;9.10;99.90
32215;DHT22;18708;53.124;23.190;2024-03-17T00:25:33;9.00;99.90
32215;DHT22;18708;53.124;23.190;2024-03-17T00:28:00;8.90;99.90
32215;DHT22;18708;53.124;23.190;2024-03-17T00:30:26;8.80;99.90
32215;DHT22;18708;53.124;23.190;2024-03-17T00:32:54;8.70;99.90
32215;DHT22;18708;53.124;23.190;2024-03-17T00:35:20;8.50;99.90
32215;DHT22;18708;53.124;23.190;2024-03-17T00:37:50;8.30;99.90
32215;DHT22;18708;53.124;23.190;2024-03-17T00:40:19;7.90;99.90
32215;DHT22;18708;53.124;23.190;2024-03-17T00:42:47;7.60;99.90
32215;DHT22;18708;53.124;23.190;2024-03-17T00:45:15;7.30;99.90
32215;DHT22;18708;53.124;23.190;2024-03-17T00:47:41;7.10;99.90
32215;DHT22;18708;53.124;23.190;2024-03-17T00:50:07;6.80;99.90
32215;DHT22;18708;53.124;23.190;2024-03-17T00:52:34;6.70;99.90
32215;DHT22;18708;53.124;23.190;2024-03-17T00:55:00;6.70;99.90
32215;DHT22;18708;53.124;23.190;2024-03-17T00:57:26;6.60;99.90
32215;DHT22;18708;53.124;23.190;2024-03-17T00:59:51;6.60;99.90
32215;DHT22;18708;53.124;23.190;2024-03-17T01:02:18;6.60;99.90
32215;DHT22;18708;53.124;23.190;2024-03-17T01:04:47;6.50;99.90
32215;DHT22;18708;53.124;23.190;2024-03-17T01:07:13;6.50;99.90
32215;DHT22;18708;53.124;23.190;2024-03-17T01:09:39;6.40;99.90
32215;DHT22;18708;53.124;23.190;2024-03-17T01:12:05;6.30;99.90
32215;DHT22;18708;53.124;23.190;2024-03-17T01:14:34;6.30;99.90
32215;DHT22;18708;53.124;23.190;2024-03-17T01:17:02;6.20;99.90
32215;DHT22;18708;53.124;23.190;2024-03-17T01:19:31;6.20;99.90
32215;DHT22;18708;53.124;23.190;2024-03-17T01:21:59;6.20;99.90
32215;DHT22;18708;53.124;23.190;2024-03-17T01:24:25;6.20;99.90
32215;DHT22;18708;53.124;23.190;2024-03-17T01:26:59;6.20;99.90
32215;DHT22;18708;53.124;23.190;2024-03-17T01:29:26;6.20;99.90
32215;DHT22;18708;53.124;23.190;2024-03-17T01:31:52;6.10;99.90
32215;DHT22;18708;53.124;23.190;2024-03-17T01:34:21;6.10;99.90
32215;DHT22;18708;53.124;23.190;2024-03-17T01:36:49;6.10;99.90
32215;DHT22;18708;53.124;23.190;2024-03-17T01:39:16;6.10;99.90
32215;DHT22;18708;53.124;23.190;2024-03-17T01:41:43;6.10;99.90
32215;DHT22;18708;53.124;23.190;2024-03-17T01:44:25;6.10;99.90
32215;DHT22;18708;53.124;23.190;2024-03-17T01:46:52;6.10;99.90
32215;DHT22;18708;53.124;23.190;2024-03-17T01:49:19;6.10;99.90
32215;DHT22;18708;53.124;23.190;2024-03-17T01:51:49;6.10;99.90
32215;DHT22;18708;53.124;23.190;2024-03-17T01:54:15;6.10;99.90
32215;DHT22;18708;53.124;23.190;2024-03-17T01:56:42;6.00;99.90
32215;DHT22;18708;53.124;23.190;2024-03-17T01:59:10;6.00;99.90
32215;DHT22;18708;53.124;23.190;2024-03-17T02:01:39;6.00;99.90
32215;DHT22;18708;53.124;23.190;2024-03-17T02:04:06;6.00;99.90
32215;DHT22;18708;53.124;23.190;2024-03-17T02:06:32;6.00;99.90
32215;DHT22;18708;53.124;23.190;2024-03-17T02:08:58;6.00;99.90
32215;DHT22;18708;53.124;23.190;2024-03-17T02:11:26;6.00;99.90
32215;DHT22;18708;53.124;23.190;2024-03-17T02:13:52;6.00;99.90
32215;DHT22;18708;53.124;23.190;2024-03-17T02:16:21;6.00;99.90
32215;DHT22;18708;53.124;23.190;2024-03-17T02:18:46;5.90;99.90
32215;DHT22;18708;53.124;23.190;2024-03-17T02:21:13;5.90;99.90
32215;DHT22;18708;53.124;23.190;2024-03-17T02:23:43;5.90;99.90
32215;DHT22;18708;53.124;23.190;2024-03-17T02:26:09;5.90;99.90
32215;DHT22;18708;53.124;23.190;2024-03-17T02:28:39;5.90;99.90
32215;DHT22;18708;53.124;23.190;2024-03-17T02:31:06;5.90;99.90
32215;DHT22;18708;53.124;23.190;2024-03-17T02:33:32;5.80;99.90
32215;DHT22;18708;53.124;23.190;2024-03-17T02:35:58;5.80;99.90
32215;DHT22;18708;53.124;23.190;2024-03-17T02:38:25;5.80;99.90
32215;DHT22;18708;53.124;23.190;2024-03-17T02:41:11;5.80;99.90
32215;DHT22;18708;53.124;23.190;2024-03-17T02:43:37;5.80;99.90
32215;DHT22;18708;53.124;23.190;2024-03-17T02:46:03;5.80;99.90
32215;DHT22;18708;53.124;23.190;2024-03-17T02:48:34;5.80;99.90
32215;DHT22;18708;53.124;23.190;2024-03-17T02:51:00;5.80;99.90
32215;DHT22;18708;53.124;23.190;2024-03-17T02:53:26;5.70;99.90
32215;DHT22;18708;53.124;23.190;2024-03-17T02:55:51;5.70;99.90
32215;DHT22;18708;53.124;23.190;2024-03-17T02:58:17;5.70;99.90
32215;DHT22;18708;53.124;23.190;2024-03-17T03:00:43;5.70;99.90
32215;DHT22;18708;53.124;23.190;2024-03-17T03:03:10;5.70;99.90
32215;DHT22;18708;53.124;23.190;2024-03-17T03:05:38;5.60;99.90
32215;DHT22;18708;53.124;23.190;2024-03-17T03:08:03;5.60;99.90
32215;DHT22;18708;53.124;23.190;2024-03-17T03:10:30;5.60;99.90
32215;DHT22;18708;53.124;23.190;2024-03-17T03:12:56;5.60;99.90
32215;DHT22;18708;53.124;23.190;2024-03-17T03:15:21;5.60;99.90
32215;DHT22;18708;53.124;23.190;2024-03-17T03:17:47;5.60;99.90
32215;DHT22;18708;53.124;23.190;2024-03-17T03:20:13;5.50;99.90
32215;DHT22;18708;53.124;23.190;2024-03-17T03:22:39;5.50;99.90
32215;DHT22;18708;53.124;23.190;2024-03-17T03:25:05;5.50;99.90
32215;DHT22;18708;53.124;23.190;2024-03-17T03:27:30;5.40;99.90
32215;DHT22;18708;53.124;23.190;2024-03-17T03:29:59;5.40;99.90
32215;DHT22;18708;53.124;23.190;2024-03-17T03:32:25;5.40;99.90
32215;DHT22;18708;53.124;23.190;2024-03-17T03:34:51;5.30;99.90
32215;DHT22;18708;53.124;23.190;2024-03-17T03:37:17;5.30;99.90
32215;DHT22;18708;53.124;23.190;2024-03-17T03:39:42;5.30;99.90
32215;DHT22;18708;53.124;23.190;2024-03-17T03:42:08;5.20;99.90
32215;DHT22;18708;53.124;23.190;2024-03-17T03:44:34;5.20;99.90
32215;DHT22;18708;53.124;23.190;2024-03-17T03:46:59;5.20;99.90
32215;DHT22;18708;53.124;23.190;2024-03-17T03:49:26;5.20;99.90
32215;DHT22;18708;53.124;23.190;2024-03-17T03:51:52;5.10;99.90
32215;DHT22;18708;53.124;23.190;2024-03-17T03:54:20;5.10;99.90
32215;DHT22;18708;53.124;23.190;2024-03-17T03:56:45;5.10;99.90
32215;DHT22;18708;53.124;23.190;2024-03-17T03:59:11;5.10;99.90
32215;DHT22;18708;53.124;23.190;2024-03-17T04:01:37;5.10;99.90
32215;DHT22;18708;53.124;23.190;2024-03-17T04:04:02;5.00;99.90
32215;DHT22;18708;53.124;23.190;2024-03-17T04:06:28;4.90;99.90
32215;DHT22;18708;53.124;23.190;2024-03-17T04:08:54;4.90;99.90
32215;DHT22;18708;53.124;23.190;2024-03-17T04:11:20;4.90;99.90
32215;DHT22;18708;53.124;23.190;2024-03-17T04:13:45;4.80;99.90
32215;DHT22;18708;53.124;23.190;2024-03-17T04:16:12;4.70;99.90
32215;DHT22;18708;53.124;23.190;2024-03-17T04:18:40;4.70;99.90
32215;DHT22;18708;53.124;23.190;2024-03-17T04:21:06;4.70;99.90
32215;DHT22;18708;53.124;23.190;2024-03-17T04:23:32;4.70;99.90
32215;DHT22;18708;53.124;23.190;2024-03-17T04:25:59;4.50;99.90
32215;DHT22;18708;53.124;23.190;2024-03-17T04:28:26;4.40;99.90
32215;DHT22;18708;53.124;23.190;2024-03-17T04:30:52;4.50;99.90
32215;DHT22;18708;53.124;23.190;2024-03-17T04:33:17;4.50;99.90
32215;DHT22;18708;53.124;23.190;2024-03-17T04:35:43;4.40;99.90
32215;DHT22;18708;53.124;23.190;2024-03-17T04:38:09;4.40;99.90
32215;DHT22;18708;53.124;23.190;2024-03-17T04:40:39;4.40;99.90
32215;DHT22;18708;53.124;23.190;2024-03-17T04:43:06;4.40;99.90
32215;DHT22;18708;53.124;23.190;2024-03-17T04:45:31;4.30;99.90
32215;DHT22;18708;53.124;23.190;2024-03-17T04:47:57;4.30;99.90
32215;DHT22;18708;53.124;23.190;2024-03-17T04:50:23;4.20;99.90
32215;DHT22;18708;53.124;23.190;2024-03-17T04:52:49;4.20;99.90
32215;DHT22;18708;53.124;23.190;2024-03-17T04:55:15;4.10;99.90
32215;DHT22;18708;53.124;23.190;2024-03-17T04:57:43;4.10;99.90
32215;DHT22;18708;53.124;23.190;2024-03-17T05:00:09;4.00;99.90
32215;DHT22;18708;53.124;23.190;2024-03-17T05:02:37;4.00;99.90
32215;DHT22;18708;53.124;23.190;2024-03-17T05:05:03;4.00;99.90
32215;DHT22;18708;53.124;23.190;2024-03-17T05:07:33;4.00;99.90
32215;DHT22;18708;53.124;23.190;2024-03-17T05:09:58;4.00;99.90
32215;DHT22;18708;53.124;23.190;2024-03-17T05:12:24;3.90;99.90
32215;DHT22;18708;53.124;23.190;2024-03-17T05:14:52;3.90;99.90
32215;DHT22;18708;53.124;23.190;2024-03-17T05:17:18;3.80;99.90
32215;DHT22;18708;53.124;23.190;2024-03-17T05:19:43;3.70;99.90
32215;DHT22;18708;53.124;23.190;2024-03-17T05:22:12;3.70;99.90
32215;DHT22;18708;53.124;23.190;2024-03-17T05:24:40;3.60;99.90
32215;DHT22;18708;53.124;23.190;2024-03-17T05:27:08;3.60;99.90
32215;DHT22;18708;53.124;23.190;2024-03-17T05:29:34;3.60;99.90
32215;DHT22;18708;53.124;23.190;2024-03-17T05:32:03;3.60;99.90
32215;DHT22;18708;53.124;23.190;2024-03-17T05:34:29;3.60;99.90
32215;DHT22;18708;53.124;23.190;2024-03-17T05:36:56;3.50;99.90
32215;DHT22;18708;53.124;23.190;2024-03-17T05:39:21;3.50;99.90
32215;DHT22;18708;53.124;23.190;2024-03-17T05:41:47;3.50;99.90
32215;DHT22;18708;53.124;23.190;2024-03-17T05:44:15;3.50;99.90
32215;DHT22;18708;53.124;23.190;2024-03-17T05:46:40;3.40;99.90
32215;DHT22;18708;53.124;23.190;2024-03-17T05:49:07;3.40;99.90
32215;DHT22;18708;53.124;23.190;2024-03-17T05:51:33;3.30;99.90
32215;DHT22;18708;53.124;23.190;2024-03-17T05:53:58;3.50;99.90
32215;DHT22;18708;53.124;23.190;2024-03-17T05:56:24;3.70;99.90
32215;DHT22;18708;53.124;23.190;2024-03-17T05:58:50;3.90;99.90
32215;DHT22;18708;53.124;23.190;2024-03-17T06:01:16;4.20;99.90
32215;DHT22;18708;53.124;23.190;2024-03-17T06:03:41;4.40;99.90
32215;DHT22;18708;53.124;23.190;2024-03-17T06:06:08;4.40;99.90
32215;DHT22;18708;53.124;23.190;2024-03-17T06:08:35;4.50;99.90
32215;DHT22;18708;53.124;23.190;2024-03-17T06:11:01;4.60;1.00
32215;DHT22;18708;53.124;23.190;2024-03-17T06:13:27;4.70;1.00
32215;DHT22;18708;53.124;23.190;2024-03-17T06:15:54;4.70;1.00
32215;DHT22;18708;53.124;23.190;2024-03-17T06:18:19;4.90;1.00
32215;DHT22;18708;53.124;23.190;2024-03-17T06:20:47;5.00;1.00
32215;DHT22;18708;53.124;23.190;2024-03-17T06:23:16;5.10;99.90
32215;DHT22;18708;53.124;23.190;2024-03-17T06:25:42;5.50;99.90
32215;DHT22;18708;53.124;23.190;2024-03-17T06:28:10;5.70;99.90
32215;DHT22;18708;53.124;23.190;2024-03-17T06:30:45;5.80;99.90
32215;DHT22;18708;53.124;23.190;2024-03-17T06:33:16;5.90;99.90
32215;DHT22;18708;53.124;23.190;2024-03-17T06:35:45;6.20;99.90
32215;DHT22;18708;53.124;23.190;2024-03-17T06:38:12;6.30;99.90
32215;DHT22;18708;53.124;23.190;2024-03-17T06:40:38;6.50;99.90
32215;DHT22;18708;53.124;23.190;2024-03-17T06:43:04;6.40;99.90
32215;DHT22;18708;53.124;23.190;2024-03-17T06:45:30;6.60;99.90
32215;DHT22;18708;53.124;23.190;2024-03-17T06:47:56;6.70;99.20
32215;DHT22;18708;53.124;23.190;2024-03-17T06:50:22;6.80;99.90
32215;DHT22;18708;53.124;23.190;2024-03-17T06:52:48;6.70;99.90
32215;DHT22;18708;53.124;23.190;2024-03-17T06:55:13;6.60;98.00
32215;DHT22;18708;53.124;23.190;2024-03-17T06:57:41;6.50;97.10
32215;DHT22;18708;53.124;23.190;2024-03-17T07:00:12;6.40;98.30
32215;DHT22;18708;53.124;23.190;2024-03-17T07:02:43;6.50;98.30
32215;DHT22;18708;53.124;23.190;2024-03-17T07:05:14;6.40;98.50
32215;DHT22;18708;53.124;23.190;2024-03-17T07:07:43;6.40;97.40
32215;DHT22;18708;53.124;23.190;2024-03-17T07:10:10;6.20;98.70
32215;DHT22;18708;53.124;23.190;2024-03-17T07:12:41;6.20;98.30
32215;DHT22;18708;53.124;23.190;2024-03-17T07:15:07;6.00;97.80
32215;DHT22;18708;53.124;23.190;2024-03-17T07:17:36;6.00;98.00
32215;DHT22;18708;53.124;23.190;2024-03-17T07:20:01;6.10;98.80
32215;DHT22;18708;53.124;23.190;2024-03-17T07:22:28;6.00;98.70
32215;DHT22;18708;53.124;23.190;2024-03-17T07:24:55;6.00;99.30
32215;DHT22;18708;53.124;23.190;2024-03-17T07:27:26;5.90;98.70
32215;DHT22;18708;53.124;23.190;2024-03-17T07:29:51;5.90;99.90
32215;DHT22;18708;53.124;23.190;2024-03-17T07:32:17;5.90;99.90
32215;DHT22;18708;53.124;23.190;2024-03-17T07:34:43;5.90;99.20
32215;DHT22;18708;53.124;23.190;2024-03-17T07:37:08;5.80;99.90
32215;DHT22;18708;53.124;23.190;2024-03-17T07:39:37;5.90;99.40
32215;DHT22;18708;53.124;23.190;2024-03-17T07:42:03;6.00;99.90
32215;DHT22;18708;53.124;23.190;2024-03-17T07:44:28;6.10;99.90
32215;DHT22;18708;53.124;23.190;2024-03-17T07:47:02;6.20;99.90
32215;DHT22;18708;53.124;23.190;2024-03-17T07:49:29;6.30;99.50
32215;DHT22;18708;53.124;23.190;2024-03-17T07:51:55;6.30;99.90
32215;DHT22;18708;53.124;23.190;2024-03-17T07:54:25;6.20;98.60
32215;DHT22;18708;53.124;23.190;2024-03-17T07:56:52;6.00;98.00
32215;DHT22;18708;53.124;23.190;2024-03-17T07:59:17;5.80;99.70
32215;DHT22;18708;53.124;23.190;2024-03-17T08:01:44;5.90;99.30
32215;DHT22;18708;53.124;23.190;2024-03-17T08:04:10;5.90;99.10
32215;DHT22;18708;53.124;23.190;2024-03-17T08:06:38;5.90;99.00
32215;DHT22;18708;53.124;23.190;2024-03-17T08:09:04;5.90;99.90
32215;DHT22;18708;53.124;23.190;2024-03-17T08:11:29;5.80;99.30
32215;DHT22;18708;53.124;23.190;2024-03-17T08:13:56;5.80;99.30
32215;DHT22;18708;53.124;23.190;2024-03-17T08:16:21;5.70;99.00
32215;DHT22;18708;53.124;23.190;2024-03-17T08:18:47;5.80;99.90
32215;DHT22;18708;53.124;23.190;2024-03-17T08:21:13;5.90;99.80
32215;DHT22;18708;53.124;23.190;2024-03-17T08:23:40;5.90;99.90
32215;DHT22;18708;53.124;23.190;2024-03-17T08:26:08;5.90;99.70
32215;DHT22;18708;53.124;23.190;2024-03-17T08:28:34;6.00;99.70
32215;DHT22;18708;53.124;23.190;2024-03-17T08:31:01;6.00;99.90
32215;DHT22;18708;53.124;23.190;2024-03-17T08:33:28;6.10;99.20
32215;DHT22;18708;53.124;23.190;2024-03-17T08:36:01;6.10;99.70
32215;DHT22;18708;53.124;23.190;2024-03-17T08:38:28;6.10;99.80
32215;DHT22;18708;53.124;23.190;2024-03-17T08:40:55;6.10;98.70
32215;DHT22;18708;53.124;23.190;2024-03-17T08:43:22;6.10;98.60
32215;DHT22;18708;53.124;23.190;2024-03-17T08:45:57;6.10;99.00
32215;DHT22;18708;53.124;23.190;2024-03-17T08:48:26;6.20;99.10
32215;DHT22;18708;53.124;23.190;2024-03-17T08:50:52;6.40;99.80
32215;DHT22;18708;53.124;23.190;2024-03-17T08:53:20;6.20;98.80
32215;DHT22;18708;53.124;23.190;2024-03-17T08:55:46;6.30;99.30
32215;DHT22;18708;53.124;23.190;2024-03-17T08:58:11;6.50;99.90
32215;DHT22;18708;53.124;23.190;2024-03-17T09:00:37;6.40;98.10
32215;DHT22;18708;53.124;23.190;2024-03-17T09:03:03;6.30;97.80
32215;DHT22;18708;53.124;23.190;2024-03-17T09:05:31;6.20;99.40
32215;DHT22;18708;53.124;23.190;2024-03-17T09:07:59;6.20;99.40
32215;DHT22;18708;53.124;23.190;2024-03-17T09:10:26;6.30;99.50
32215;DHT22;18708;53.124;23.190;2024-03-17T09:12:52;6.40;98.50
32215;DHT22;18708;53.124;23.190;2024-03-17T09:15:17;6.40;99.80
32215;DHT22;18708;53.124;23.190;2024-03-17T09:17:43;6.50;99.40
32215;DHT22;18708;53.124;23.190;2024-03-17T09:20:12;6.50;99.90
32215;DHT22;18708;53.124;23.190;2024-03-17T09:22:40;6.50;99.30
32215;DHT22;18708;53.124;23.190;2024-03-17T09:25:06;6.50;97.90
32215;DHT22;18708;53.124;23.190;2024-03-17T09:27:35;6.60;99.70
32215;DHT22;18708;53.124;23.190;2024-03-17T09:30:04;6.70;98.50
32215;DHT22;18708;53.124;23.190;2024-03-17T09:32:38;6.90;99.00
32215;DHT22;18708;53.124;23.190;2024-03-17T09:35:04;7.10;98.70
32215;DHT22;18708;53.124;23.190;2024-03-17T09:37:31;7.00;97.80
32215;DHT22;18708;53.124;23.190;2024-03-17T09:39:57;6.90;97.60
32215;DHT22;18708;53.124;23.190;2024-03-17T09:42:25;6.90;97.80
32215;DHT22;18708;53.124;23.190;2024-03-17T09:44:53;6.90;97.70
32215;DHT22;18708;53.124;23.190;2024-03-17T09:47:20;6.80;98.20
32215;DHT22;18708;53.124;23.190;2024-03-17T09:49:47;6.80;97.60
32215;DHT22;18708;53.124;23.190;2024-03-17T09:52:24;6.60;97.00
32215;DHT22;18708;53.124;23.190;2024-03-17T09:55:00;6.40;97.30
32215;DHT22;18708;53.124;23.190;2024-03-17T09:57:29;6.30;98.00
32215;DHT22;18708;53.124;23.190;2024-03-17T09:59:55;6.40;98.30
32215;DHT22;18708;53.124;23.190;2024-03-17T10:02:22;6.40;97.40
32215;DHT22;18708;53.124;23.190;2024-03-17T10:04:48;6.40;97.70
32215;DHT22;18708;53.124;23.190;2024-03-17T10:07:14;6.40;97.90
32215;DHT22;18708;53.124;23.190;2024-03-17T10:09:43;6.30;98.30
32215;DHT22;18708;53.124;23.190;2024-03-17T10:12:28;6.40;98.40
32215;DHT22;18708;53.124;23.190;2024-03-17T10:15:01;6.50;98.00
32215;DHT22;18708;53.124;23.190;2024-03-17T10:17:33;6.60;97.30
32215;DHT22;18708;53.124;23.190;2024-03-17T10:20:16;6.70;98.20
32215;DHT22;18708;53.124;23.190;2024-03-17T10:22:58;6.70;98.00
32215;DHT22;18708;53.124;23.190;2024-03-17T10:25:25;6.80;97.30
32215;DHT22;18708;53.124;23.190;2024-03-17T10:27:52;6.70;98.10
32215;DHT22;18708;53.124;23.190;2024-03-17T10:30:19;6.70;96.70
32215;DHT22;18708;53.124;23.190;2024-03-17T10:32:55;6.70;98.10
32215;DHT22;18708;53.124;23.190;2024-03-17T10:35:35;6.80;97.50
32215;DHT22;18708;53.124;23.190;2024-03-17T10:38:05;6.60;99.10
32215;DHT22;18708;53.124;23.190;2024-03-17T10:40:31;6.40;99.90
32215;DHT22;18708;53.124;23.190;2024-03-17T10:43:00;6.30;99.90
32215;DHT22;18708;53.124;23.190;2024-03-17T10:45:27;6.40;99.90
32215;DHT22;18708;53.124;23.190;2024-03-17T10:47:56;6.50;99.90
32215;DHT22;18708;53.124;23.190;2024-03-17T10:50:28;6.40;99.90
32215;DHT22;18708;53.124;23.190;2024-03-17T10:52:55;6.40;99.90
32215;DHT22;18708;53.124;23.190;2024-03-17T10:55:24;6.50;99.90
32215;DHT22;18708;53.124;23.190;2024-03-17T10:57:54;6.50;99.90
32215;DHT22;18708;53.124;23.190;2024-03-17T11:00:24;6.40;99.90
32215;DHT22;18708;53.124;23.190;2024-03-17T11:02:54;5.80;99.90
32215;DHT22;18708;53.124;23.190;2024-03-17T11:05:25;5.10;99.90
32215;DHT22;18708;53.124;23.190;2024-03-17T11:07:55;4.70;99.90
32215;DHT22;18708;53.124;23.190;2024-03-17T11:10:27;4.70;99.90
32215;DHT22;18708;53.124;23.190;2024-03-17T11:12:58;4.90;99.90
32215;DHT22;18708;53.124;23.190;2024-03-17T11:18:26;5.10;99.90
32215;DHT22;18708;53.124;23.190;2024-03-17T11:23:41;5.20;99.90
32215;DHT22;18708;53.124;23.190;2024-03-17T11:26:07;5.40;99.90
32215;DHT22;18708;53.124;23.190;2024-03-17T11:31:41;5.60;99.90
32215;DHT22;18708;53.124;23.190;2024-03-17T11:34:29;5.50;99.90
32215;DHT22;18708;53.124;23.190;2024-03-17T11:36:57;5.50;99.90
32215;DHT22;18708;53.124;23.190;2024-03-17T11:39:56;5.50;99.90
32215;DHT22;18708;53.124;23.190;2024-03-17T11:42:24;5.50;99.90
32215;DHT22;18708;53.124;23.190;2024-03-17T11:47:23;5.50;99.90
32215;DHT22;18708;53.124;23.190;2024-03-17T11:49:51;5.60;99.90
32215;DHT22;18708;53.124;23.190;2024-03-17T11:52:17;5.70;99.90
32215;DHT22;18708;53.124;23.190;2024-03-17T11:54:45;5.70;99.90
32215;DHT22;18708;53.124;23.190;2024-03-17T11:57:20;5.80;99.90
32215;DHT22;18708;53.124;23.190;2024-03-17T11:59:52;5.80;99.90
32215;DHT22;18708;53.124;23.190;2024-03-17T12:02:28;5.80;99.90
32215;DHT22;18708;53.124;23.190;2024-03-17T12:04:58;5.80;99.90
32215;DHT22;18708;53.124;23.190;2024-03-17T12:07:24;5.90;99.90
32215;DHT22;18708;53.124;23.190;2024-03-17T12:09:51;6.10;99.90
32215;DHT22;18708;53.124;23.190;2024-03-17T12:14:45;6.10;99.90
32215;DHT22;18708;53.124;23.190;2024-03-17T12:17:13;6.00;99.90
32215;DHT22;18708;53.124;23.190;2024-03-17T12:19:44;5.80;99.90
32215;DHT22;18708;53.124;23.190;2024-03-17T12:22:22;5.60;99.90
32215;DHT22;18708;53.124;23.190;2024-03-17T12:24:51;5.50;99.90
32215;DHT22;18708;53.124;23.190;2024-03-17T12:27:24;5.60;99.90
32215;DHT22;18708;53.124;23.190;2024-03-17T12:29:54;5.70;99.90
32215;DHT22;18708;53.124;23.190;2024-03-17T12:34:50;5.60;99.90
32215;DHT22;18708;53.124;23.190;2024-03-17T12:37:20;5.60;99.90
32215;DHT22;18708;53.124;23.190;2024-03-17T12:39:46;5.60;99.90
32215;DHT22;18708;53.124;23.190;2024-03-17T12:42:17;5.70;99.90
32215;DHT22;18708;53.124;23.190;2024-03-17T12:44:55;5.60;99.90
32215;DHT22;18708;53.124;23.190;2024-03-17T12:47:22;5.70;99.90
32215;DHT22;18708;53.124;23.190;2024-03-17T12:52:23;5.70;99.90
32215;DHT22;18708;53.124;23.190;2024-03-17T12:57:51;5.10;99.90
32215;DHT22;18708;53.124;23.190;2024-03-17T13:00:36;5.10;99.90
32215;DHT22;18708;53.124;23.190;2024-03-17T13:03:06;4.90;99.90
32215;DHT22;18708;53.124;23.190;2024-03-17T13:05:35;4.80;99.90
32215;DHT22;18708;53.124;23.190;2024-03-17T13:08:02;4.70;99.90
32215;DHT22;18708;53.124;23.190;2024-03-17T13:10:29;4.70;99.90
32215;DHT22;18708;53.124;23.190;2024-03-17T13:15:26;5.00;99.90
32215;DHT22;18708;53.124;23.190;2024-03-17T13:17:52;5.00;99.90
32215;DHT22;18708;53.124;23.190;2024-03-17T13:20:18;5.20;99.90
32215;DHT22;18708;53.124;23.190;2024-03-17T13:22:44;5.20;99.90
32215;DHT22;18708;53.124;23.190;2024-03-17T13:25:17;5.30;99.90
32215;DHT22;18708;53.124;23.190;2024-03-17T13:27:46;5.30;99.90
32215;DHT22;18708;53.124;23.190;2024-03-17T13:30:13;5.30;99.90
32215;DHT22;18708;53.124;23.190;2024-03-17T13:32:39;5.40;99.90
32215;DHT22;18708;53.124;23.190;2024-03-17T13:35:06;5.30;99.90
32215;DHT22;18708;53.124;23.190;2024-03-17T13:37:37;5.20;99.90
32215;DHT22;18708;53.124;23.190;2024-03-17T13:40:04;5.20;99.90
32215;DHT22;18708;53.124;23.190;2024-03-17T13:42:30;5.10;99.90
32215;DHT22;18708;53.124;23.190;2024-03-17T13:44:56;4.90;99.90
32215;DHT22;18708;53.124;23.190;2024-03-17T13:47:22;4.40;99.90
32215;DHT22;18708;53.124;23.190;2024-03-17T13:49:48;3.70;99.90
32215;DHT22;18708;53.124;23.190;2024-03-17T13:52:13;3.50;99.90
32215;DHT22;18708;53.124;23.190;2024-03-17T13:54:39;3.30;99.90
32215;DHT22;18708;53.124;23.190;2024-03-17T13:57:05;3.10;99.90
32215;DHT22;18708;53.124;23.190;2024-03-17T13:59:31;3.00;99.90
32215;DHT22;18708;53.124;23.190;2024-03-17T14:01:57;3.00;99.90
32215;DHT22;18708;53.124;23.190;2024-03-17T14:04:23;3.00;99.90
32215;DHT22;18708;53.124;23.190;2024-03-17T14:06:49;3.00;99.90
32215;DHT22;18708;53.124;23.190;2024-03-17T14:09:16;2.90;99.90
32215;DHT22;18708;53.124;23.190;2024-03-17T14:11:47;3.00;99.90
32215;DHT22;18708;53.124;23.190;2024-03-17T14:14:13;3.00;99.90
32215;DHT22;18708;53.124;23.190;2024-03-17T14:16:39;3.10;99.90
32215;DHT22;18708;53.124;23.190;2024-03-17T14:19:06;3.10;99.90
32215;DHT22;18708;53.124;23.190;2024-03-17T14:21:34;3.10;99.90
32215;DHT22;18708;53.124;23.190;2024-03-17T14:24:00;3.10;99.90
32215;DHT22;18708;53.124;23.190;2024-03-17T14:26:29;3.10;99.90
32215;DHT22;18708;53.124;23.190;2024-03-17T14:28:55;3.00;99.90
32215;DHT22;18708;53.124;23.190;2024-03-17T14:31:22;3.10;99.90
32215;DHT22;18708;53.124;23.190;2024-03-17T14:33:48;3.10;99.90
32215;DHT22;18708;53.124;23.190;2024-03-17T14:36:13;3.20;99.90
32215;DHT22;18708;53.124;23.190;2024-03-17T14:38:39;3.20;99.90
32215;DHT22;18708;53.124;23.190;2024-03-17T14:41:05;3.20;99.90
32215;DHT22;18708;53.124;23.190;2024-03-17T14:43:31;3.20;99.90
32215;DHT22;18708;53.124;23.190;2024-03-17T14:45:57;3.20;99.90
32215;DHT22;18708;53.124;23.190;2024-03-17T14:48:25;3.20;99.90
32215;DHT22;18708;53.124;23.190;2024-03-17T14:50:53;3.30;99.90
32215;DHT22;18708;53.124;23.190;2024-03-17T14:53:19;3.30;99.90
32215;DHT22;18708;53.124;23.190;2024-03-17T14:55:45;3.30;99.90
32215;DHT22;18708;53.124;23.190;2024-03-17T14:58:11;3.30;99.90
32215;DHT22;18708;53.124;23.190;2024-03-17T15:00:37;3.40;99.90
32215;DHT22;18708;53.124;23.190;2024-03-17T15:03:03;3.40;99.90
32215;DHT22;18708;53.124;23.190;2024-03-17T15:05:33;3.50;99.90
32215;DHT22;18708;53.124;23.190;2024-03-17T15:07:58;3.40;99.90
32215;DHT22;18708;53.124;23.190;2024-03-17T15:10:24;3.40;99.90
32215;DHT22;18708;53.124;23.190;2024-03-17T15:12:51;3.40;99.90
32215;DHT22;18708;53.124;23.190;2024-03-17T15:15:16;3.30;99.90
32215;DHT22;18708;53.124;23.190;2024-03-17T15:17:42;3.10;99.90
32215;DHT22;18708;53.124;23.190;2024-03-17T15:20:10;3.10;99.90
32215;DHT22;18708;53.124;23.190;2024-03-17T15:22:48;3.00;99.90
32215;DHT22;18708;53.124;23.190;2024-03-17T15:25:17;3.00;99.90
32215;DHT22;18708;53.124;23.190;2024-03-17T15:27:44;3.00;99.90
32215;DHT22;18708;53.124;23.190;2024-03-17T15:30:14;2.90;99.90
32215;DHT22;18708;53.124;23.190;2024-03-17T15:32:41;3.00;99.90
32215;DHT22;18708;53.124;23.190;2024-03-17T15:35:07;3.00;99.90
32215;DHT22;18708;53.124;23.190;2024-03-17T15:37:33;3.00;99.90
32215;DHT22;18708;53.124;23.190;2024-03-17T15:39:59;3.00;99.90
32215;DHT22;18708;53.124;23.190;2024-03-17T15:42:25;3.00;99.90
32215;DHT22;18708;53.124;23.190;2024-03-17T15:44:50;3.00;99.90
32215;DHT22;18708;53.124;23.190;2024-03-17T15:47:16;3.00;99.90
32215;DHT22;18708;53.124;23.190;2024-03-17T15:49:44;3.00;99.90
32215;DHT22;18708;53.124;23.190;2024-03-17T15:52:10;3.00;99.90
32215;DHT22;18708;53.124;23.190;2024-03-17T15:54:36;3.00;99.90
32215;DHT22;18708;53.124;23.190;2024-03-17T15:57:01;3.00;99.90